Date,TemperatureHighF,TemperatureAvgF,TemperatureLowF,DewpointHighF,DewpointAvgF,DewpointLowF,HumidityHigh,HumidityAvg,HumidityLow,PressureMaxIn,PressureMinIn,WindSpeedMaxMPH,WindSpeedAvgMPH,GustSpeedMaxMPH,PrecipitationSumIn
2013-9-1,79.0,69.9,64.0,68.0,63.2,-99.9,97,83,61,29.86,29.79,6,1,9,0.01
2013-9-2,77.0,67.4,60.0,69.0,64.5,59.0,97,90,75,29.80,29.65,3,0,8,0.38
2013-9-3,65.0,60.8,58.0,61.0,58.2,57.0,97,91,82,29.85,29.70,7,1,9,0.38
2013-9-4,71.0,61.6,54.0,60.0,57.1,53.0,97,86,65,29.92,29.85,6,1,10,0.28
2013-9-5,60.0,52.2,40.0,57.0,45.1,38.0,97,79,52,30.21,29.90,5,1,10,0.28
2013-9-6,66.0,49.6,34.0,48.0,40.9,33.0,100,76,39,30.30,30.11,4,1,6,0.00
2013-9-7,67.0,56.9,50.0,55.0,49.1,46.0,92,76,50,30.11,29.87,4,0,7,0.00
2013-9-8,58.0,52.0,39.0,57.0,43.9,-99.9,97,78,53,30.14,29.81,8,2,11,0.10
2013-9-9,69.0,50.8,35.0,50.0,42.1,34.0,98,76,39,30.22,30.07,6,1,8,0.09
2013-9-10,75.0,65.9,56.0,71.0,63.4,50.0,98,92,80,30.07,29.93,6,1,8,0.41
2013-9-11,87.0,76.2,68.0,74.0,70.3,65.0,95,83,61,30.03,29.89,6,1,9,0.41
2013-9-12,71.0,67.4,60.0,68.0,65.1,59.0,97,92,84,29.89,29.64,2,0,7,0.12
2013-9-13,60.0,52.4,46.0,59.0,50.7,45.0,97,94,83,29.93,29.65,6,2,11,0.29
2013-9-14,59.0,47.5,41.0,47.0,43.1,39.0,97,86,59,30.14,29.92,5,1,8,0.26
2013-9-15,64.0,48.5,38.0,52.0,42.9,-99.9,98,86,61,30.18,30.07,4,0,7,0.05
2013-9-16,52.0,46.8,35.0,51.0,43.1,33.0,97,88,63,30.37,30.04,8,1,9,0.31
2013-9-17,62.0,44.2,32.0,44.0,36.7,31.0,98,79,40,30.53,30.38,4,0,6,0.26
2013-9-18,45.0,37.7,36.0,41.0,36.7,35.0,98,96,94,30.38,30.18,0,0,1,0.01
2013-9-19,76.0,56.2,40.0,54.0,47.7,39.0,98,77,41,30.19,30.06,3,0,8,0.01
2013-9-20,79.0,61.2,44.0,60.0,52.1,43.0,98,75,45,30.09,29.88,5,1,9,0.01
2013-9-21,71.0,62.6,57.0,59.0,55.2,51.0,96,78,56,29.90,29.58,11,3,17,0.16
2013-9-22,57.0,48.6,43.0,56.0,45.1,-99.9,96,91,78,29.96,29.57,5,2,10,0.27
2013-9-23,47.0,42.3,39.0,42.0,38.6,36.0,95,87,76,30.14,29.96,5,1,7,0.13
2013-9-24,59.0,45.8,38.0,44.0,40.3,36.0,96,83,51,30.12,29.98,6,1,10,0.00
2013-9-25,67.0,49.5,35.0,49.0,43.2,34.0,98,82,52,30.04,29.96,5,1,7,0.00
2013-9-26,63.0,49.8,39.0,48.0,44.3,38.0,98,83,57,30.20,30.04,6,2,10,0.01
2013-9-27,61.0,49.3,39.0,51.0,45.5,38.0,98,87,68,30.33,30.19,6,1,9,0.01
2013-9-28,72.0,54.4,36.0,53.0,44.7,35.0,98,74,43,30.40,30.27,7,1,10,0.01
2013-9-29,73.0,53.7,40.0,52.0,43.2,-99.9,97,74,42,30.27,30.06,5,0,6,0.01
2013-9-30,72.0,54.7,39.0,53.0,46.0,38.0,97,76,39,30.10,29.99,4,0,6,0.00